sensor_id;sensor_type;location;lat;lon;timestamp;temperature;humidity
2945;DHT22;1482;51.398;7.128;2023-04-06T00:02:24;4.80;1.00
2945;DHT22;1482;51.398;7.128;2023-04-06T00:04:50;4.70;1.00
2945;DHT22;1482;51.398;7.128;2023-04-06T00:07:15;4.50;1.00
2945;DHT22;1482;51.398;7.128;2023-04-06T00:09:41;4.40;1.00
2945;DHT22;1482;51.398;7.128;2023-04-06T00:12:07;4.20;1.00
2945;DHT22;1482;51.398;7.128;2023-04-06T00:14:32;4.20;1.00
2945;DHT22;1482;51.398;7.128;2023-04-06T00:16:58;4.00;1.00
2945;DHT22;1482;51.398;7.128;2023-04-06T00:19:23;3.90;1.00
2945;DHT22;1482;51.398;7.128;2023-04-06T00:21:49;3.70;1.00
2945;DHT22;1482;51.398;7.128;2023-04-06T00:24:15;3.70;1.00
2945;DHT22;1482;51.398;7.128;2023-04-06T00:26:40;3.90;1.00
2945;DHT22;1482;51.398;7.128;2023-04-06T00:29:06;4.00;1.00
2945;DHT22;1482;51.398;7.128;2023-04-06T00:31:31;3.90;1.00
2945;DHT22;1482;51.398;7.128;2023-04-06T00:33:57;3.80;1.00
2945;DHT22;1482;51.398;7.128;2023-04-06T00:36:23;3.80;1.00
2945;DHT22;1482;51.398;7.128;2023-04-06T00:38:49;3.90;1.00
2945;DHT22;1482;51.398;7.128;2023-04-06T00:41:14;3.80;1.00
2945;DHT22;1482;51.398;7.128;2023-04-06T00:43:40;3.80;1.00
2945;DHT22;1482;51.398;7.128;2023-04-06T00:46:05;3.80;1.00
2945;DHT22;1482;51.398;7.128;2023-04-06T00:48:31;3.70;1.00
2945;DHT22;1482;51.398;7.128;2023-04-06T00:50:58;3.80;1.00
2945;DHT22;1482;51.398;7.128;2023-04-06T00:53:24;3.80;1.00
2945;DHT22;1482;51.398;7.128;2023-04-06T00:55:50;3.90;1.00
2945;DHT22;1482;51.398;7.128;2023-04-06T00:58:16;4.00;1.00
2945;DHT22;1482;51.398;7.128;2023-04-06T01:00:41;3.90;1.00
2945;DHT22;1482;51.398;7.128;2023-04-06T01:03:07;3.90;1.00
2945;DHT22;1482;51.398;7.128;2023-04-06T01:05:34;4.00;1.00
2945;DHT22;1482;51.398;7.128;2023-04-06T01:08:05;3.90;1.00
2945;DHT22;1482;51.398;7.128;2023-04-06T01:10:30;4.00;1.00
2945;DHT22;1482;51.398;7.128;2023-04-06T01:12:56;3.90;1.00
2945;DHT22;1482;51.398;7.128;2023-04-06T01:15:22;3.90;1.00
2945;DHT22;1482;51.398;7.128;2023-04-06T01:17:49;3.90;1.00
2945;DHT22;1482;51.398;7.128;2023-04-06T01:20:14;3.90;1.00
2945;DHT22;1482;51.398;7.128;2023-04-06T01:22:40;4.00;1.00
2945;DHT22;1482;51.398;7.128;2023-04-06T01:25:06;4.10;1.00
2945;DHT22;1482;51.398;7.128;2023-04-06T01:27:32;4.00;1.00
2945;DHT22;1482;51.398;7.128;2023-04-06T01:29:58;3.90;1.00
2945;DHT22;1482;51.398;7.128;2023-04-06T01:32:24;3.90;1.00
2945;DHT22;1482;51.398;7.128;2023-04-06T01:34:50;3.90;1.00
2945;DHT22;1482;51.398;7.128;2023-04-06T01:37:16;3.80;1.00
2945;DHT22;1482;51.398;7.128;2023-04-06T01:39:42;3.80;1.00
2945;DHT22;1482;51.398;7.128;2023-04-06T01:42:08;3.70;1.00
2945;DHT22;1482;51.398;7.128;2023-04-06T01:44:34;3.80;1.00
2945;DHT22;1482;51.398;7.128;2023-04-06T01:46:59;3.80;1.00
2945;DHT22;1482;51.398;7.128;2023-04-06T01:49:25;3.80;1.00
2945;DHT22;1482;51.398;7.128;2023-04-06T01:51:51;3.80;1.00
2945;DHT22;1482;51.398;7.128;2023-04-06T01:54:17;3.80;1.00
2945;DHT22;1482;51.398;7.128;2023-04-06T01:56:43;4.00;1.00
2945;DHT22;1482;51.398;7.128;2023-04-06T01:59:08;4.00;1.00
2945;DHT22;1482;51.398;7.128;2023-04-06T02:01:34;3.90;1.00
2945;DHT22;1482;51.398;7.128;2023-04-06T02:04:00;3.90;1.00
2945;DHT22;1482;51.398;7.128;2023-04-06T02:06:25;3.80;1.00
2945;DHT22;1482;51.398;7.128;2023-04-06T02:08:52;3.90;1.00
2945;DHT22;1482;51.398;7.128;2023-04-06T02:11:17;3.90;1.00
2945;DHT22;1482;51.398;7.128;2023-04-06T02:13:43;3.80;1.00
2945;DHT22;1482;51.398;7.128;2023-04-06T02:16:08;3.70;1.00
2945;DHT22;1482;51.398;7.128;2023-04-06T02:18:34;3.80;1.00
2945;DHT22;1482;51.398;7.128;2023-04-06T02:20:59;3.70;1.00
2945;DHT22;1482;51.398;7.128;2023-04-06T02:23:25;3.70;1.00
2945;DHT22;1482;51.398;7.128;2023-04-06T02:25:51;3.70;1.00
2945;DHT22;1482;51.398;7.128;2023-04-06T02:28:17;3.70;1.00
2945;DHT22;1482;51.398;7.128;2023-04-06T02:30:43;3.70;1.00
2945;DHT22;1482;51.398;7.128;2023-04-06T02:33:08;3.60;1.00
2945;DHT22;1482;51.398;7.128;2023-04-06T02:35:34;3.60;1.00
2945;DHT22;1482;51.398;7.128;2023-04-06T02:37:59;3.70;1.00
2945;DHT22;1482;51.398;7.128;2023-04-06T02:40:25;3.70;1.00
2945;DHT22;1482;51.398;7.128;2023-04-06T02:42:50;3.70;1.00
2945;DHT22;1482;51.398;7.128;2023-04-06T02:45:16;3.80;1.00
2945;DHT22;1482;51.398;7.128;2023-04-06T02:47:42;3.70;1.00
2945;DHT22;1482;51.398;7.128;2023-04-06T02:50:08;3.80;1.00
2945;DHT22;1482;51.398;7.128;2023-04-06T02:52:33;3.70;1.00
2945;DHT22;1482;51.398;7.128;2023-04-06T02:54:59;3.70;1.00
2945;DHT22;1482;51.398;7.128;2023-04-06T02:57:24;3.70;1.00
2945;DHT22;1482;51.398;7.128;2023-04-06T02:59:50;3.80;1.00
2945;DHT22;1482;51.398;7.128;2023-04-06T03:02:16;3.80;1.00
2945;DHT22;1482;51.398;7.128;2023-04-06T03:04:42;3.80;1.00
2945;DHT22;1482;51.398;7.128;2023-04-06T03:07:08;3.80;1.00
2945;DHT22;1482;51.398;7.128;2023-04-06T03:09:36;3.80;1.00
2945;DHT22;1482;51.398;7.128;2023-04-06T03:12:02;3.70;1.00
2945;DHT22;1482;51.398;7.128;2023-04-06T03:14:28;3.60;1.00
2945;DHT22;1482;51.398;7.128;2023-04-06T03:16:53;3.60;1.00
2945;DHT22;1482;51.398;7.128;2023-04-06T03:19:19;3.60;1.00
2945;DHT22;1482;51.398;7.128;2023-04-06T03:21:45;3.60;1.00
2945;DHT22;1482;51.398;7.128;2023-04-06T03:24:11;3.60;1.00
2945;DHT22;1482;51.398;7.128;2023-04-06T03:26:36;3.60;1.00
2945;DHT22;1482;51.398;7.128;2023-04-06T03:29:02;3.60;1.00
2945;DHT22;1482;51.398;7.128;2023-04-06T03:31:27;3.50;1.00
2945;DHT22;1482;51.398;7.128;2023-04-06T03:33:53;3.50;1.00
2945;DHT22;1482;51.398;7.128;2023-04-06T03:36:18;3.50;1.00
2945;DHT22;1482;51.398;7.128;2023-04-06T03:38:44;3.50;1.00
2945;DHT22;1482;51.398;7.128;2023-04-06T03:41:10;3.50;1.00
2945;DHT22;1482;51.398;7.128;2023-04-06T03:43:35;3.60;1.00
2945;DHT22;1482;51.398;7.128;2023-04-06T03:46:01;3.50;1.00
2945;DHT22;1482;51.398;7.128;2023-04-06T03:48:27;3.50;1.00
2945;DHT22;1482;51.398;7.128;2023-04-06T03:50:52;3.50;1.00
2945;DHT22;1482;51.398;7.128;2023-04-06T03:53:18;3.40;1.00
2945;DHT22;1482;51.398;7.128;2023-04-06T03:55:43;3.40;1.00
2945;DHT22;1482;51.398;7.128;2023-04-06T03:58:09;3.40;1.00
2945;DHT22;1482;51.398;7.128;2023-04-06T04:00:35;3.50;1.00
2945;DHT22;1482;51.398;7.128;2023-04-06T04:03:01;3.50;1.00
2945;DHT22;1482;51.398;7.128;2023-04-06T04:05:27;3.50;1.00
2945;DHT22;1482;51.398;7.128;2023-04-06T04:07:53;3.50;1.00
2945;DHT22;1482;51.398;7.128;2023-04-06T04:10:18;3.60;1.00
2945;DHT22;1482;51.398;7.128;2023-04-06T04:12:44;3.60;1.00
2945;DHT22;1482;51.398;7.128;2023-04-06T04:15:10;3.60;1.00
2945;DHT22;1482;51.398;7.128;2023-04-06T04:17:35;3.60;1.00
2945;DHT22;1482;51.398;7.128;2023-04-06T04:20:01;3.50;1.00
2945;DHT22;1482;51.398;7.128;2023-04-06T04:22:26;3.50;1.00
2945;DHT22;1482;51.398;7.128;2023-04-06T04:24:53;3.50;1.00
2945;DHT22;1482;51.398;7.128;2023-04-06T04:27:18;3.40;1.00
2945;DHT22;1482;51.398;7.128;2023-04-06T04:29:44;3.50;1.00
2945;DHT22;1482;51.398;7.128;2023-04-06T04:32:10;3.50;1.00
2945;DHT22;1482;51.398;7.128;2023-04-06T04:34:36;3.50;1.00
2945;DHT22;1482;51.398;7.128;2023-04-06T04:37:05;3.60;1.00
2945;DHT22;1482;51.398;7.128;2023-04-06T04:39:31;3.70;1.00
2945;DHT22;1482;51.398;7.128;2023-04-06T04:41:56;3.80;1.00
2945;DHT22;1482;51.398;7.128;2023-04-06T04:44:22;3.70;1.00
2945;DHT22;1482;51.398;7.128;2023-04-06T04:46:47;3.60;1.00
2945;DHT22;1482;51.398;7.128;2023-04-06T04:49:13;3.50;1.00
2945;DHT22;1482;51.398;7.128;2023-04-06T04:51:39;3.50;1.00
2945;DHT22;1482;51.398;7.128;2023-04-06T04:54:04;3.50;1.00
2945;DHT22;1482;51.398;7.128;2023-04-06T04:56:30;3.60;1.00
2945;DHT22;1482;51.398;7.128;2023-04-06T04:58:55;3.70;1.00
2945;DHT22;1482;51.398;7.128;2023-04-06T05:01:21;3.70;1.00
2945;DHT22;1482;51.398;7.128;2023-04-06T05:03:47;3.70;1.00
2945;DHT22;1482;51.398;7.128;2023-04-06T05:06:12;3.70;1.00
2945;DHT22;1482;51.398;7.128;2023-04-06T05:08:38;3.80;1.00
2945;DHT22;1482;51.398;7.128;2023-04-06T05:11:03;4.00;1.00
2945;DHT22;1482;51.398;7.128;2023-04-06T05:13:30;4.10;1.00
2945;DHT22;1482;51.398;7.128;2023-04-06T05:15:56;4.40;1.00
2945;DHT22;1482;51.398;7.128;2023-04-06T05:18:22;4.60;1.00
2945;DHT22;1482;51.398;7.128;2023-04-06T05:20:47;5.00;1.00
2945;DHT22;1482;51.398;7.128;2023-04-06T05:23:13;5.10;1.00
2945;DHT22;1482;51.398;7.128;2023-04-06T05:25:39;5.40;1.00
2945;DHT22;1482;51.398;7.128;2023-04-06T05:28:04;5.60;1.00
2945;DHT22;1482;51.398;7.128;2023-04-06T05:30:30;6.10;1.00
2945;DHT22;1482;51.398;7.128;2023-04-06T05:32:55;6.60;1.00
2945;DHT22;1482;51.398;7.128;2023-04-06T05:35:21;7.00;1.00
2945;DHT22;1482;51.398;7.128;2023-04-06T05:37:47;7.50;1.00
2945;DHT22;1482;51.398;7.128;2023-04-06T05:40:12;7.70;1.00
2945;DHT22;1482;51.398;7.128;2023-04-06T05:42:39;7.30;1.00
2945;DHT22;1482;51.398;7.128;2023-04-06T05:45:05;7.40;1.00
2945;DHT22;1482;51.398;7.128;2023-04-06T05:47:31;7.10;1.00
2945;DHT22;1482;51.398;7.128;2023-04-06T05:49:57;7.40;1.00
2945;DHT22;1482;51.398;7.128;2023-04-06T05:52:22;7.70;1.00
2945;DHT22;1482;51.398;7.128;2023-04-06T05:54:48;8.30;1.00
2945;DHT22;1482;51.398;7.128;2023-04-06T05:57:14;8.80;1.00
2945;DHT22;1482;51.398;7.128;2023-04-06T05:59:39;10.00;1.00
2945;DHT22;1482;51.398;7.128;2023-04-06T06:02:05;11.20;1.00
2945;DHT22;1482;51.398;7.128;2023-04-06T06:04:31;11.60;1.00
2945;DHT22;1482;51.398;7.128;2023-04-06T06:06:56;11.80;1.00
2945;DHT22;1482;51.398;7.128;2023-04-06T06:09:22;12.60;1.00
2945;DHT22;1482;51.398;7.128;2023-04-06T06:11:48;12.80;1.00
2945;DHT22;1482;51.398;7.128;2023-04-06T06:14:14;13.90;1.00
2945;DHT22;1482;51.398;7.128;2023-04-06T06:16:40;13.70;1.00
2945;DHT22;1482;51.398;7.128;2023-04-06T06:19:06;13.70;1.00
2945;DHT22;1482;51.398;7.128;2023-04-06T06:21:31;13.50;1.00
2945;DHT22;1482;51.398;7.128;2023-04-06T06:23:57;13.90;1.00
2945;DHT22;1482;51.398;7.128;2023-04-06T06:26:23;14.20;1.00
2945;DHT22;1482;51.398;7.128;2023-04-06T06:28:48;14.70;1.00
2945;DHT22;1482;51.398;7.128;2023-04-06T06:31:14;15.40;1.00
2945;DHT22;1482;51.398;7.128;2023-04-06T06:33:39;16.10;1.00
2945;DHT22;1482;51.398;7.128;2023-04-06T06:36:05;16.20;1.00
2945;DHT22;1482;51.398;7.128;2023-04-06T06:38:31;17.30;1.00
2945;DHT22;1482;51.398;7.128;2023-04-06T06:40:56;17.00;1.00
2945;DHT22;1482;51.398;7.128;2023-04-06T06:43:22;18.50;1.00
2945;DHT22;1482;51.398;7.128;2023-04-06T06:45:48;17.00;1.00
2945;DHT22;1482;51.398;7.128;2023-04-06T06:48:13;16.40;1.00
2945;DHT22;1482;51.398;7.128;2023-04-06T06:50:39;17.00;1.00
2945;DHT22;1482;51.398;7.128;2023-04-06T06:53:04;15.70;1.00
2945;DHT22;1482;51.398;7.128;2023-04-06T06:55:30;15.90;1.00
2945;DHT22;1482;51.398;7.128;2023-04-06T06:57:55;17.40;1.00
2945;DHT22;1482;51.398;7.128;2023-04-06T07:00:21;17.20;1.00
2945;DHT22;1482;51.398;7.128;2023-04-06T07:02:47;16.90;1.00
2945;DHT22;1482;51.398;7.128;2023-04-06T07:05:15;18.60;1.00
2945;DHT22;1482;51.398;7.128;2023-04-06T07:07:41;20.00;1.00
2945;DHT22;1482;51.398;7.128;2023-04-06T07:10:07;20.50;1.00
2945;DHT22;1482;51.398;7.128;2023-04-06T07:12:33;21.00;1.00
2945;DHT22;1482;51.398;7.128;2023-04-06T07:14:59;21.90;1.00
2945;DHT22;1482;51.398;7.128;2023-04-06T07:17:25;22.00;1.00
2945;DHT22;1482;51.398;7.128;2023-04-06T07:19:50;21.60;1.00
2945;DHT22;1482;51.398;7.128;2023-04-06T07:22:16;24.40;1.00
2945;DHT22;1482;51.398;7.128;2023-04-06T07:24:42;25.30;1.00
2945;DHT22;1482;51.398;7.128;2023-04-06T07:27:07;23.90;1.00
2945;DHT22;1482;51.398;7.128;2023-04-06T07:29:33;23.30;1.00
2945;DHT22;1482;51.398;7.128;2023-04-06T07:31:58;24.80;1.00
2945;DHT22;1482;51.398;7.128;2023-04-06T07:34:24;23.70;1.00
2945;DHT22;1482;51.398;7.128;2023-04-06T07:36:50;22.90;1.00
2945;DHT22;1482;51.398;7.128;2023-04-06T07:39:18;24.30;1.00
2945;DHT22;1482;51.398;7.128;2023-04-06T07:41:43;25.50;1.00
2945;DHT22;1482;51.398;7.128;2023-04-06T07:44:09;23.10;1.00
2945;DHT22;1482;51.398;7.128;2023-04-06T07:46:34;23.50;1.00
2945;DHT22;1482;51.398;7.128;2023-04-06T07:49:01;23.10;1.00
2945;DHT22;1482;51.398;7.128;2023-04-06T07:51:27;23.30;1.00
2945;DHT22;1482;51.398;7.128;2023-04-06T07:53:53;25.70;1.00
2945;DHT22;1482;51.398;7.128;2023-04-06T07:56:18;27.10;1.00
2945;DHT22;1482;51.398;7.128;2023-04-06T07:58:44;28.40;1.00
2945;DHT22;1482;51.398;7.128;2023-04-06T08:01:10;27.70;1.00
2945;DHT22;1482;51.398;7.128;2023-04-06T08:03:36;26.50;1.00
2945;DHT22;1482;51.398;7.128;2023-04-06T08:06:02;27.40;1.00
2945;DHT22;1482;51.398;7.128;2023-04-06T08:08:28;30.50;1.00
2945;DHT22;1482;51.398;7.128;2023-04-06T08:10:54;31.20;1.00
2945;DHT22;1482;51.398;7.128;2023-04-06T08:13:19;31.30;1.00
2945;DHT22;1482;51.398;7.128;2023-04-06T08:15:45;32.00;1.00
2945;DHT22;1482;51.398;7.128;2023-04-06T08:18:12;31.40;1.00
2945;DHT22;1482;51.398;7.128;2023-04-06T08:20:38;32.10;1.00
2945;DHT22;1482;51.398;7.128;2023-04-06T08:23:04;30.30;1.00
2945;DHT22;1482;51.398;7.128;2023-04-06T08:25:29;29.30;1.00
2945;DHT22;1482;51.398;7.128;2023-04-06T08:27:55;26.20;1.00
2945;DHT22;1482;51.398;7.128;2023-04-06T08:30:21;24.40;1.00
2945;DHT22;1482;51.398;7.128;2023-04-06T08:32:47;21.60;1.00
2945;DHT22;1482;51.398;7.128;2023-04-06T08:35:12;21.10;1.00
2945;DHT22;1482;51.398;7.128;2023-04-06T08:37:38;19.70;1.00
2945;DHT22;1482;51.398;7.128;2023-04-06T08:40:04;19.00;1.00
2945;DHT22;1482;51.398;7.128;2023-04-06T08:42:32;18.90;1.00
2945;DHT22;1482;51.398;7.128;2023-04-06T08:44:59;19.20;1.00
2945;DHT22;1482;51.398;7.128;2023-04-06T08:47:25;18.30;1.00
2945;DHT22;1482;51.398;7.128;2023-04-06T08:49:53;18.10;1.00
2945;DHT22;1482;51.398;7.128;2023-04-06T08:52:19;17.70;1.00
2945;DHT22;1482;51.398;7.128;2023-04-06T08:54:45;17.70;1.00
2945;DHT22;1482;51.398;7.128;2023-04-06T08:57:11;17.70;1.00
2945;DHT22;1482;51.398;7.128;2023-04-06T08:59:38;17.70;1.00
2945;DHT22;1482;51.398;7.128;2023-04-06T09:02:04;16.80;1.00
2945;DHT22;1482;51.398;7.128;2023-04-06T09:04:34;17.40;1.00
2945;DHT22;1482;51.398;7.128;2023-04-06T09:07:01;16.90;1.00
2945;DHT22;1482;51.398;7.128;2023-04-06T09:09:26;17.50;1.00
2945;DHT22;1482;51.398;7.128;2023-04-06T09:11:52;17.70;1.00
2945;DHT22;1482;51.398;7.128;2023-04-06T09:14:34;16.40;1.00
2945;DHT22;1482;51.398;7.128;2023-04-06T09:17:00;16.50;1.00
2945;DHT22;1482;51.398;7.128;2023-04-06T09:19:26;17.00;1.00
2945;DHT22;1482;51.398;7.128;2023-04-06T09:22:04;17.20;1.00
2945;DHT22;1482;51.398;7.128;2023-04-06T09:24:40;17.20;1.00
2945;DHT22;1482;51.398;7.128;2023-04-06T09:27:06;17.70;1.00
2945;DHT22;1482;51.398;7.128;2023-04-06T09:29:31;17.90;1.00
2945;DHT22;1482;51.398;7.128;2023-04-06T09:32:04;17.40;1.00
2945;DHT22;1482;51.398;7.128;2023-04-06T09:34:30;17.20;1.00
2945;DHT22;1482;51.398;7.128;2023-04-06T09:36:56;17.80;1.00
2945;DHT22;1482;51.398;7.128;2023-04-06T09:39:22;18.10;1.00
2945;DHT22;1482;51.398;7.128;2023-04-06T09:41:51;18.70;1.00
2945;DHT22;1482;51.398;7.128;2023-04-06T09:44:17;19.00;1.00
2945;DHT22;1482;51.398;7.128;2023-04-06T09:46:43;19.50;1.00
2945;DHT22;1482;51.398;7.128;2023-04-06T09:49:11;19.20;1.00
2945;DHT22;1482;51.398;7.128;2023-04-06T09:51:41;19.40;1.00
2945;DHT22;1482;51.398;7.128;2023-04-06T09:54:09;19.20;1.00
2945;DHT22;1482;51.398;7.128;2023-04-06T09:57:03;18.90;1.00
2945;DHT22;1482;51.398;7.128;2023-04-06T10:01:56;18.90;1.00
2945;DHT22;1482;51.398;7.128;2023-04-06T10:04:43;18.30;1.00
2945;DHT22;1482;51.398;7.128;2023-04-06T10:07:09;18.40;1.00
2945;DHT22;1482;51.398;7.128;2023-04-06T10:09:37;17.90;1.00
2945;DHT22;1482;51.398;7.128;2023-04-06T10:12:06;18.10;1.00
2945;DHT22;1482;51.398;7.128;2023-04-06T10:14:35;18.50;1.00
2945;DHT22;1482;51.398;7.128;2023-04-06T10:17:03;18.60;1.00
2945;DHT22;1482;51.398;7.128;2023-04-06T10:19:34;18.40;1.00
2945;DHT22;1482;51.398;7.128;2023-04-06T10:22:02;17.80;1.00
2945;DHT22;1482;51.398;7.128;2023-04-06T10:24:30;17.90;1.00
2945;DHT22;1482;51.398;7.128;2023-04-06T10:27:01;18.30;1.00
2945;DHT22;1482;51.398;7.128;2023-04-06T10:29:27;18.30;1.00
2945;DHT22;1482;51.398;7.128;2023-04-06T10:31:53;18.10;1.00
2945;DHT22;1482;51.398;7.128;2023-04-06T10:34:20;18.60;1.00
2945;DHT22;1482;51.398;7.128;2023-04-06T10:36:46;18.10;1.00
2945;DHT22;1482;51.398;7.128;2023-04-06T10:39:12;18.50;1.00
2945;DHT22;1482;51.398;7.128;2023-04-06T10:41:43;17.90;1.00
2945;DHT22;1482;51.398;7.128;2023-04-06T10:44:20;18.10;1.00
2945;DHT22;1482;51.398;7.128;2023-04-06T10:46:57;18.00;1.00
2945;DHT22;1482;51.398;7.128;2023-04-06T10:49:24;18.00;1.00
2945;DHT22;1482;51.398;7.128;2023-04-06T10:51:56;17.60;1.00
2945;DHT22;1482;51.398;7.128;2023-04-06T10:54:24;17.50;1.00
2945;DHT22;1482;51.398;7.128;2023-04-06T10:56:50;17.20;1.00
2945;DHT22;1482;51.398;7.128;2023-04-06T10:59:22;17.50;1.00
2945;DHT22;1482;51.398;7.128;2023-04-06T11:01:48;17.80;1.00
2945;DHT22;1482;51.398;7.128;2023-04-06T11:04:17;18.00;1.00
2945;DHT22;1482;51.398;7.128;2023-04-06T11:06:47;18.10;1.00
2945;DHT22;1482;51.398;7.128;2023-04-06T11:09:24;18.10;1.00
2945;DHT22;1482;51.398;7.128;2023-04-06T11:11:50;18.60;1.00
2945;DHT22;1482;51.398;7.128;2023-04-06T11:14:16;18.30;1.00
2945;DHT22;1482;51.398;7.128;2023-04-06T11:16:41;18.10;1.00
2945;DHT22;1482;51.398;7.128;2023-04-06T11:19:07;18.20;1.00
2945;DHT22;1482;51.398;7.128;2023-04-06T11:21:44;18.10;1.00
2945;DHT22;1482;51.398;7.128;2023-04-06T11:24:16;18.10;1.00
2945;DHT22;1482;51.398;7.128;2023-04-06T11:26:49;18.20;1.00
2945;DHT22;1482;51.398;7.128;2023-04-06T11:29:18;18.20;1.00
2945;DHT22;1482;51.398;7.128;2023-04-06T11:31:49;18.10;1.00
2945;DHT22;1482;51.398;7.128;2023-04-06T11:34:19;18.20;1.00
2945;DHT22;1482;51.398;7.128;2023-04-06T11:36:45;18.20;1.00
2945;DHT22;1482;51.398;7.128;2023-04-06T11:39:20;17.90;1.00
2945;DHT22;1482;51.398;7.128;2023-04-06T11:41:54;17.10;1.00
2945;DHT22;1482;51.398;7.128;2023-04-06T11:44:39;16.60;1.00
2945;DHT22;1482;51.398;7.128;2023-04-06T11:47:07;17.20;1.00
2945;DHT22;1482;51.398;7.128;2023-04-06T11:49:37;16.90;1.00
2945;DHT22;1482;51.398;7.128;2023-04-06T11:52:03;16.60;1.00
2945;DHT22;1482;51.398;7.128;2023-04-06T11:54:39;16.80;1.00
2945;DHT22;1482;51.398;7.128;2023-04-06T11:57:07;16.40;1.00
2945;DHT22;1482;51.398;7.128;2023-04-06T11:59:33;15.80;1.00
2945;DHT22;1482;51.398;7.128;2023-04-06T12:01:59;15.60;1.00
2945;DHT22;1482;51.398;7.128;2023-04-06T12:04:24;16.10;1.00
2945;DHT22;1482;51.398;7.128;2023-04-06T12:06:50;16.20;1.00
2945;DHT22;1482;51.398;7.128;2023-04-06T12:09:19;16.50;1.00
2945;DHT22;1482;51.398;7.128;2023-04-06T12:11:45;16.40;1.00
2945;DHT22;1482;51.398;7.128;2023-04-06T12:14:11;15.90;1.00
2945;DHT22;1482;51.398;7.128;2023-04-06T12:16:36;16.10;1.00
2945;DHT22;1482;51.398;7.128;2023-04-06T12:19:02;15.90;1.00
2945;DHT22;1482;51.398;7.128;2023-04-06T12:21:28;16.20;1.00
2945;DHT22;1482;51.398;7.128;2023-04-06T12:23:54;16.30;1.00
2945;DHT22;1482;51.398;7.128;2023-04-06T12:26:20;16.30;1.00
2945;DHT22;1482;51.398;7.128;2023-04-06T12:28:46;16.60;1.00
2945;DHT22;1482;51.398;7.128;2023-04-06T12:31:20;16.90;1.00
2945;DHT22;1482;51.398;7.128;2023-04-06T12:33:50;16.80;1.00
2945;DHT22;1482;51.398;7.128;2023-04-06T12:36:19;16.60;1.00
2945;DHT22;1482;51.398;7.128;2023-04-06T12:38:47;16.40;1.00
2945;DHT22;1482;51.398;7.128;2023-04-06T12:41:13;16.60;1.00
2945;DHT22;1482;51.398;7.128;2023-04-06T12:43:40;16.70;1.00
2945;DHT22;1482;51.398;7.128;2023-04-06T12:46:06;15.90;1.00
2945;DHT22;1482;51.398;7.128;2023-04-06T12:48:31;16.10;1.00
2945;DHT22;1482;51.398;7.128;2023-04-06T12:50:58;16.00;1.00
2945;DHT22;1482;51.398;7.128;2023-04-06T12:53:24;16.40;1.00
2945;DHT22;1482;51.398;7.128;2023-04-06T12:55:50;16.20;1.00
2945;DHT22;1482;51.398;7.128;2023-04-06T12:58:15;16.20;1.00
2945;DHT22;1482;51.398;7.128;2023-04-06T13:00:42;16.40;1.00
2945;DHT22;1482;51.398;7.128;2023-04-06T13:03:08;16.20;1.00
2945;DHT22;1482;51.398;7.128;2023-04-06T13:05:33;16.40;1.00
2945;DHT22;1482;51.398;7.128;2023-04-06T13:07:59;16.40;1.00
2945;DHT22;1482;51.398;7.128;2023-04-06T13:10:24;16.40;1.00
2945;DHT22;1482;51.398;7.128;2023-04-06T13:12:50;16.30;1.00
2945;DHT22;1482;51.398;7.128;2023-04-06T13:15:16;16.40;1.00
2945;DHT22;1482;51.398;7.128;2023-04-06T13:17:41;16.10;1.00
2945;DHT22;1482;51.398;7.128;2023-04-06T13:20:07;16.10;1.00
2945;DHT22;1482;51.398;7.128;2023-04-06T13:22:33;16.20;1.00
2945;DHT22;1482;51.398;7.128;2023-04-06T13:24:59;15.90;1.00
2945;DHT22;1482;51.398;7.128;2023-04-06T13:27:25;15.90;1.00
2945;DHT22;1482;51.398;7.128;2023-04-06T13:29:50;16.00;1.00
2945;DHT22;1482;51.398;7.128;2023-04-06T13:32:16;15.70;1.00
2945;DHT22;1482;51.398;7.128;2023-04-06T13:34:41;15.80;1.00
2945;DHT22;1482;51.398;7.128;2023-04-06T13:37:11;15.90;1.00
2945;DHT22;1482;51.398;7.128;2023-04-06T13:39:37;15.20;1.00
2945;DHT22;1482;51.398;7.128;2023-04-06T13:42:03;15.00;1.00
2945;DHT22;1482;51.398;7.128;2023-04-06T13:44:28;15.10;1.00
2945;DHT22;1482;51.398;7.128;2023-04-06T13:46:54;15.40;1.00
2945;DHT22;1482;51.398;7.128;2023-04-06T13:49:20;15.20;1.00
2945;DHT22;1482;51.398;7.128;2023-04-06T13:51:45;14.90;1.00
2945;DHT22;1482;51.398;7.128;2023-04-06T13:54:11;14.60;1.00
2945;DHT22;1482;51.398;7.128;2023-04-06T13:56:37;14.60;1.00
2945;DHT22;1482;51.398;7.128;2023-04-06T13:59:03;14.50;1.00
2945;DHT22;1482;51.398;7.128;2023-04-06T14:01:28;14.80;1.00
2945;DHT22;1482;51.398;7.128;2023-04-06T14:03:54;14.60;1.00
2945;DHT22;1482;51.398;7.128;2023-04-06T14:06:19;14.40;1.00
2945;DHT22;1482;51.398;7.128;2023-04-06T14:08:45;14.60;1.00
2945;DHT22;1482;51.398;7.128;2023-04-06T14:11:14;14.50;1.00
2945;DHT22;1482;51.398;7.128;2023-04-06T14:13:40;14.40;1.00
2945;DHT22;1482;51.398;7.128;2023-04-06T14:16:07;14.40;1.00
2945;DHT22;1482;51.398;7.128;2023-04-06T14:18:33;14.30;1.00
2945;DHT22;1482;51.398;7.128;2023-04-06T14:21:00;14.50;1.00
2945;DHT22;1482;51.398;7.128;2023-04-06T14:23:29;14.40;1.00
2945;DHT22;1482;51.398;7.128;2023-04-06T14:26:05;14.10;1.00
2945;DHT22;1482;51.398;7.128;2023-04-06T14:28:32;13.60;1.00
2945;DHT22;1482;51.398;7.128;2023-04-06T14:31:08;13.80;1.00
2945;DHT22;1482;51.398;7.128;2023-04-06T14:33:34;13.90;1.00
2945;DHT22;1482;51.398;7.128;2023-04-06T14:36:03;13.70;1.00
2945;DHT22;1482;51.398;7.128;2023-04-06T14:38:28;13.50;1.00
2945;DHT22;1482;51.398;7.128;2023-04-06T14:40:54;13.60;1.00
2945;DHT22;1482;51.398;7.128;2023-04-06T14:43:21;13.80;1.00
2945;DHT22;1482;51.398;7.128;2023-04-06T14:45:47;13.60;1.00
2945;DHT22;1482;51.398;7.128;2023-04-06T14:48:12;13.60;1.00
2945;DHT22;1482;51.398;7.128;2023-04-06T14:50:39;13.10;1.00
2945;DHT22;1482;51.398;7.128;2023-04-06T14:53:26;13.10;1.00
2945;DHT22;1482;51.398;7.128;2023-04-06T14:55:56;13.30;1.00
2945;DHT22;1482;51.398;7.128;2023-04-06T14:58:23;13.00;1.00
2945;DHT22;1482;51.398;7.128;2023-04-06T15:00:49;13.10;1.00
2945;DHT22;1482;51.398;7.128;2023-04-06T15:03:20;12.40;1.00
2945;DHT22;1482;51.398;7.128;2023-04-06T15:05:45;12.00;1.00
2945;DHT22;1482;51.398;7.128;2023-04-06T15:08:12;12.10;1.00
2945;DHT22;1482;51.398;7.128;2023-04-06T15:10:50;12.10;1.00
2945;DHT22;1482;51.398;7.128;2023-04-06T15:13:17;12.00;1.00
2945;DHT22;1482;51.398;7.128;2023-04-06T15:15:43;12.00;1.00
2945;DHT22;1482;51.398;7.128;2023-04-06T15:18:10;12.00;1.00
2945;DHT22;1482;51.398;7.128;2023-04-06T15:20:36;11.80;1.00
2945;DHT22;1482;51.398;7.128;2023-04-06T15:23:02;11.50;1.00
2945;DHT22;1482;51.398;7.128;2023-04-06T15:25:29;11.50;1.00
2945;DHT22;1482;51.398;7.128;2023-04-06T15:27:55;11.80;1.00
2945;DHT22;1482;51.398;7.128;2023-04-06T15:30:31;11.90;1.00
2945;DHT22;1482;51.398;7.128;2023-04-06T15:33:13;11.60;1.00
2945;DHT22;1482;51.398;7.128;2023-04-06T15:35:43;11.90;1.00
2945;DHT22;1482;51.398;7.128;2023-04-06T15:38:09;11.70;1.00
2945;DHT22;1482;51.398;7.128;2023-04-06T15:40:43;11.50;1.00
2945;DHT22;1482;51.398;7.128;2023-04-06T15:46:32;11.30;1.00
2945;DHT22;1482;51.398;7.128;2023-04-06T15:48:58;11.40;1.00
2945;DHT22;1482;51.398;7.128;2023-04-06T15:51:36;11.30;1.00
2945;DHT22;1482;51.398;7.128;2023-04-06T15:54:04;11.00;1.00
2945;DHT22;1482;51.398;7.128;2023-04-06T15:56:31;10.80;1.00
2945;DHT22;1482;51.398;7.128;2023-04-06T15:58:57;10.60;1.00
2945;DHT22;1482;51.398;7.128;2023-04-06T16:01:24;10.60;1.00
2945;DHT22;1482;51.398;7.128;2023-04-06T16:03:50;10.50;1.00
2945;DHT22;1482;51.398;7.128;2023-04-06T16:06:16;10.40;1.00
2945;DHT22;1482;51.398;7.128;2023-04-06T16:08:41;10.30;1.00
2945;DHT22;1482;51.398;7.128;2023-04-06T16:11:07;10.30;1.00
2945;DHT22;1482;51.398;7.128;2023-04-06T16:13:33;10.00;1.00
2945;DHT22;1482;51.398;7.128;2023-04-06T16:15:59;9.80;1.00
2945;DHT22;1482;51.398;7.128;2023-04-06T16:18:24;9.70;1.00
2945;DHT22;1482;51.398;7.128;2023-04-06T16:20:50;9.50;1.00
2945;DHT22;1482;51.398;7.128;2023-04-06T16:23:15;9.40;1.00
2945;DHT22;1482;51.398;7.128;2023-04-06T16:25:41;9.50;1.00
2945;DHT22;1482;51.398;7.128;2023-04-06T16:28:07;9.40;1.00